Time;durP1;ratioP1;P1;durP2;ratioP2;P2;SDS_P1;SDS_P2;PMS_P1;PMS_P2;Temp;Humidity;BMP_temperature;BMP_pressure;BME280_temperature;BME280_humidity;BME280_pressure;Samples;Min_cycle;Max_cycle;Signal;HPM_P1;HPM_P2
2021/05/16 00:00:24;;;;;;;30.77;18.13;;;;;;;13.54;64.83;97452.78;5071391;28;20028;-76
2021/05/16 00:02:51;;;;;;;29.05;17.52;;;;;;;13.53;64.94;97444.88;5071315;28;20063;-76
2021/05/16 00:05:19;;;;;;;27.25;17.33;;;;;;;13.59;64.85;97451.78;5071403;28;20028;-76
2021/05/16 00:07:44;;;;;;;29.30;17.83;;;;;;;13.59;65.00;97454.53;5070823;28;20032;-76
2021/05/16 00:10:12;;;;;;;26.67;16.13;;;;;;;13.61;64.76;97455.00;5072748;28;20078;-76
2021/05/16 00:12:38;;;;;;;27.98;16.15;;;;;;;13.60;65.08;97453.38;5072395;28;20470;-77
2021/05/16 00:15:07;;;;;;;32.40;18.05;;;;;;;13.65;65.15;97450.38;5072379;28;20028;-76
2021/05/16 00:17:32;;;;;;;33.17;17.95;;;;;;;13.67;65.01;97445.34;5072506;28;20035;-77
2021/05/16 00:19:58;;;;;;;32.45;17.60;;;;;;;13.69;65.14;97450.53;5071125;28;20512;-76
2021/05/16 00:22:23;;;;;;;33.10;17.70;;;;;;;13.70;65.30;97443.88;5070986;28;20037;-75
2021/05/16 00:24:49;;;;;;;37.72;17.92;;;;;;;13.69;64.93;97439.50;5070770;28;20032;-76
2021/05/16 00:27:15;;;;;;;31.23;17.30;;;;;;;13.71;65.01;97431.69;5070931;28;20025;-76
2021/05/16 00:29:40;;;;;;;30.75;16.73;;;;;;;13.72;64.93;97432.50;5070456;28;20094;-75
2021/05/16 00:32:06;;;;;;;30.95;17.77;;;;;;;13.69;65.11;97432.03;5070789;28;20466;-75
2021/05/16 00:34:31;;;;;;;38.33;18.77;;;;;;;13.67;65.08;97422.50;5071017;28;20078;-75
2021/05/16 00:36:58;;;;;;;38.03;19.08;;;;;;;13.68;64.75;97427.66;5071466;28;20083;-76
2021/05/16 00:39:24;;;;;;;35.47;18.08;;;;;;;13.73;65.05;97428.59;5070867;28;20508;-75
2021/05/16 00:41:51;;;;;;;32.33;17.20;;;;;;;13.72;65.05;97433.31;5070865;28;20029;-75
2021/05/16 00:44:17;;;;;;;37.75;18.30;;;;;;;13.73;64.98;97434.91;5068246;28;20032;-75
2021/05/16 00:46:42;;;;;;;37.95;19.40;;;;;;;13.74;65.08;97428.25;5070871;28;20024;-75
2021/05/16 00:49:07;;;;;;;39.22;19.20;;;;;;;13.75;64.98;97426.28;5070666;28;20033;-76
2021/05/16 00:51:33;;;;;;;44.55;21.48;;;;;;;13.75;65.21;97420.78;5070756;28;20394;-75
2021/05/16 00:53:58;;;;;;;47.60;22.25;;;;;;;13.74;64.78;97416.41;5069393;28;20024;-76
2021/05/16 00:56:24;;;;;;;40.17;20.83;;;;;;;13.70;64.79;97419.84;5070660;28;20074;-76
2021/05/16 00:58:49;;;;;;;37.05;18.83;;;;;;;13.70;64.89;97414.34;5070529;28;20551;-75
2021/05/16 01:01:17;;;;;;;36.67;19.10;;;;;;;13.70;64.99;97413.56;5070456;28;20080;-76
2021/05/16 01:03:43;;;;;;;28.73;16.95;;;;;;;13.70;65.29;97413.56;5074220;28;20025;-75
2021/05/16 01:06:08;;;;;;;29.25;17.67;;;;;;;13.70;64.86;97408.03;5074772;28;20493;-75
2021/05/16 01:08:34;;;;;;;30.45;17.85;;;;;;;13.69;64.86;97401.72;5073411;28;20028;-75
2021/05/16 01:11:00;;;;;;;32.08;18.05;;;;;;;13.70;64.99;97403.31;5073876;28;20033;-75
2021/05/16 01:13:26;;;;;;;30.95;18.35;;;;;;;13.69;65.01;97400.94;5073381;28;20028;-76
2021/05/16 01:15:53;;;;;;;33.20;18.88;;;;;;;13.68;65.08;97397.34;5074282;28;20370;-75
2021/05/16 01:18:18;;;;;;;38.40;19.92;;;;;;;13.70;65.02;97397.03;5074432;28;20029;-75
2021/05/16 01:20:47;;;;;;;30.25;18.30;;;;;;;13.74;65.26;97394.38;5074744;28;20580;-75
2021/05/16 01:23:17;;;;;;;29.80;17.75;;;;;;;13.77;65.17;97397.25;5074512;28;20555;-76
2021/05/16 01:25:45;;;;;;;28.73;17.75;;;;;;;13.78;65.14;97390.59;5074520;28;20033;-76
2021/05/16 01:28:12;;;;;;;28.42;17.52;;;;;;;13.82;65.16;97398.97;5074385;28;20474;-76
2021/05/16 01:30:39;;;;;;;26.85;16.27;;;;;;;13.82;65.22;97404.50;5074370;28;20023;-76
2021/05/16 01:33:04;;;;;;;28.83;16.85;;;;;;;13.80;65.36;97404.03;5073133;28;20036;-76
2021/05/16 01:35:31;;;;;;;28.27;16.80;;;;;;;13.80;65.05;97401.28;5074358;28;20036;-76
2021/05/16 01:37:57;;;;;;;27.80;17.05;;;;;;;13.82;65.20;97397.03;5071851;28;20103;-76
2021/05/16 01:40:23;;;;;;;26.42;17.17;;;;;;;13.84;65.00;97391.19;5074389;28;20095;-75
2021/05/16 01:42:51;;;;;;;30.70;17.52;;;;;;;13.83;65.18;97395.91;5074327;28;20405;-76
2021/05/16 01:45:19;;;;;;;27.02;16.75;;;;;;;13.86;65.13;97402.66;5071436;28;20020;-76
2021/05/16 01:47:45;;;;;;;30.77;16.17;;;;;;;13.84;65.17;97397.50;5074128;28;20024;-75
2021/05/16 01:50:17;;;;;;;28.60;16.85;;;;;;;13.84;65.22;97402.19;5074125;28;20078;-75
2021/05/16 01:52:44;;;;;;;25.25;16.02;;;;;;;13.83;65.13;97400.59;5072431;28;20492;-76
2021/05/16 01:55:11;;;;;;;28.15;15.48;;;;;;;13.81;65.04;97402.88;5073930;28;20035;-76
2021/05/16 01:57:38;;;;;;;23.25;14.35;;;;;;;13.70;64.86;97406.09;5071366;28;20036;-75
2021/05/16 02:00:12;;;;;;;26.50;15.65;;;;;;;13.63;65.11;97392.09;5073795;28;20067;-75
2021/05/16 02:02:38;;;;;;;26.65;15.52;;;;;;;13.62;65.04;97397.94;5071970;28;20465;-76
2021/05/16 02:05:04;;;;;;;31.02;16.50;;;;;;;13.63;65.23;97392.09;5074405;28;20037;-75
2021/05/16 02:07:32;;;;;;;29.80;16.95;;;;;;;13.65;65.20;97388.97;5073839;28;20027;-75
2021/05/16 02:09:57;;;;;;;26.00;15.45;;;;;;;13.65;65.38;97383.47;5071684;28;20103;-76
2021/05/16 02:12:22;;;;;;;25.30;14.15;;;;;;;13.64;65.33;97392.88;5073690;28;20101;-75
2021/05/16 02:14:48;;;;;;;22.85;13.50;;;;;;;13.61;65.32;97394.38;5073380;28;20024;-75
2021/05/16 02:17:14;;;;;;;22.67;12.60;;;;;;;13.61;65.19;97401.84;5073683;28;20035;-75
2021/05/16 02:19:41;;;;;;;18.02;11.10;;;;;;;13.62;65.69;97401.50;5073888;28;20024;-75
2021/05/16 02:22:07;;;;;;;17.42;10.23;;;;;;;13.61;65.53;97404.59;5073803;28;20519;-75
2021/05/16 02:24:32;;;;;;;18.10;10.32;;;;;;;13.60;65.57;97398.28;5073498;28;20474;-76
2021/05/16 02:27:01;;;;;;;17.15;10.30;;;;;;;13.61;65.65;97402.66;5073622;28;20030;-75
2021/05/16 02:29:30;;;;;;;17.48;10.15;;;;;;;13.63;65.47;97402.28;5071918;28;20082;-75
2021/05/16 02:31:59;;;;;;;19.38;10.18;;;;;;;13.64;65.52;97401.97;5070068;28;20036;-77
2021/05/16 02:34:24;;;;;;;15.35;10.18;;;;;;;13.67;65.44;97400.47;5070639;28;20482;-77
2021/05/16 02:36:50;;;;;;;20.42;11.13;;;;;;;13.70;65.67;97397.03;5072862;28;20024;-77
2021/05/16 02:39:15;;;;;;;16.90;11.20;;;;;;;13.69;65.87;97385.19;5049081;28;20056;-77
2021/05/16 02:41:41;;;;;;;21.50;12.25;;;;;;;13.76;65.39;97394.84;5040224;28;20037;-77
2021/05/16 02:44:07;;;;;;;20.60;13.20;;;;;;;13.78;65.97;97392.53;5041984;28;20051;-77
2021/05/16 02:46:37;;;;;;;21.63;12.85;;;;;;;13.79;65.81;97386.72;5046415;28;20355;-77
2021/05/16 02:49:03;;;;;;;21.67;13.73;;;;;;;13.76;65.58;97384.63;5046176;28;20032;-77
2021/05/16 02:51:28;;;;;;;24.10;13.32;;;;;;;13.73;65.35;97379.00;5046945;28;20033;-77
2021/05/16 02:53:54;;;;;;;22.42;14.10;;;;;;;13.70;65.62;97372.22;5046956;28;20402;-77
2021/05/16 02:56:19;;;;;;;23.10;13.32;;;;;;;13.68;65.49;97375.31;5046790;28;20040;-77
2021/05/16 02:58:45;;;;;;;24.35;14.40;;;;;;;13.64;65.91;97376.34;5045599;28;20063;-77
2021/05/16 03:01:11;;;;;;;24.33;14.10;;;;;;;13.63;65.62;97380.25;5037959;28;20075;-76
2021/05/16 03:03:40;;;;;;;23.42;14.07;;;;;;;13.59;65.45;97371.06;5037195;28;20485;-76
2021/05/16 03:06:07;;;;;;;27.50;14.63;;;;;;;13.58;65.44;97375.78;5057928;28;20025;-76
2021/05/16 03:08:32;;;;;;;26.42;14.68;;;;;;;13.55;65.48;97376.47;5045267;28;20295;-76
2021/05/16 03:10:58;;;;;;;24.75;14.85;;;;;;;13.54;65.50;97375.66;5045851;28;20037;-76
2021/05/16 03:13:24;;;;;;;21.80;13.45;;;;;;;13.53;65.81;97382.31;5047796;28;20040;-76
2021/05/16 03:15:49;;;;;;;20.45;13.10;;;;;;;13.50;65.64;97385.75;5044335;28;20029;-76
2021/05/16 03:18:15;;;;;;;24.27;13.95;;;;;;;13.49;65.71;97373.13;5045773;28;20665;-76
2021/05/16 03:20:41;;;;;;;21.48;13.82;;;;;;;13.48;65.84;97377.00;5044042;28;20021;-77
2021/05/16 03:23:06;;;;;;;21.38;13.43;;;;;;;13.50;65.88;97379.44;5036521;28;20021;-77
2021/05/16 03:25:34;;;;;;;26.65;15.35;;;;;;;13.49;66.04;97383.34;5034334;28;20621;-76
2021/05/16 03:28:01;;;;;;;32.13;15.93;;;;;;;13.50;65.77;97382.19;5045014;28;20028;-77
2021/05/16 03:30:26;;;;;;;32.08;16.10;;;;;;;13.52;65.77;97382.66;5046432;28;20025;-77
2021/05/16 03:32:52;;;;;;;29.52;16.48;;;;;;;13.51;65.90;97379.09;5045527;28;20107;-77
2021/05/16 03:35:17;;;;;;;33.33;16.17;;;;;;;13.51;66.04;97375.53;5045478;28;20036;-76
2021/05/16 03:37:42;;;;;;;31.00;15.80;;;;;;;13.49;65.98;97375.06;5044528;28;20017;-77
2021/05/16 03:40:09;;;;;;;31.13;15.90;;;;;;;13.49;65.78;97381.38;5046214;28;20048;-76
2021/05/16 03:42:34;;;;;;;29.70;14.52;;;;;;;13.50;65.87;97377.47;5034593;28;20021;-77
2021/05/16 03:45:00;;;;;;;25.70;13.50;;;;;;;13.51;65.62;97379.09;5037107;28;20560;-77
2021/05/16 03:47:26;;;;;;;23.77;13.63;;;;;;;13.57;66.15;97382.44;5042226;28;20079;-77
2021/05/16 03:49:52;;;;;;;23.77;13.23;;;;;;;13.60;66.13;97384.50;5045891;28;20029;-77
2021/05/16 03:52:19;;;;;;;23.55;13.73;;;;;;;13.64;65.97;97387.38;5046225;28;20020;-77
2021/05/16 03:54:49;;;;;;;25.98;13.45;;;;;;;13.65;66.16;97380.72;5045116;28;20017;-76
2021/05/16 03:57:16;;;;;;;21.90;12.07;;;;;;;13.65;66.10;97384.25;5057338;28;20036;-77
2021/05/16 03:59:42;;;;;;;23.50;12.80;;;;;;;13.65;66.09;97384.25;5047468;28;20471;-77
2021/05/16 04:02:07;;;;;;;20.38;11.75;;;;;;;13.65;65.98;97388.97;5043353;28;20045;-77
2021/05/16 04:04:33;;;;;;;21.95;11.90;;;;;;;13.65;66.24;97391.75;5037881;28;20021;-77
2021/05/16 04:06:58;;;;;;;18.67;10.30;;;;;;;13.67;65.95;97381.19;5049195;28;20144;-77
2021/05/16 04:09:23;;;;;;;16.88;9.98;;;;;;;13.72;66.21;97393.91;5043168;28;20483;-76
2021/05/16 04:11:49;;;;;;;18.75;10.45;;;;;;;13.71;66.02;97393.13;5045090;28;20021;-77
2021/05/16 04:14:16;;;;;;;17.67;10.40;;;;;;;13.73;65.90;97388.06;5048639;28;20056;-77
2021/05/16 04:16:41;;;;;;;19.33;10.18;;;;;;;13.75;65.77;97387.72;5047843;28;20029;-77
2021/05/16 04:19:06;;;;;;;16.02;9.27;;;;;;;13.76;66.17;97389.31;5044446;28;20399;-76
2021/05/16 04:21:32;;;;;;;15.93;9.73;;;;;;;13.79;66.25;97394.16;5053703;28;20047;-77
2021/05/16 04:24:00;;;;;;;18.80;9.70;;;;;;;13.81;66.00;97389.94;5057782;28;20268;-77
2021/05/16 04:26:25;;;;;;;17.77;9.98;;;;;;;13.82;66.11;97390.72;5035056;28;20029;-77
2021/05/16 04:28:51;;;;;;;16.80;9.57;;;;;;;13.84;66.33;97385.66;5045242;28;20701;-77
2021/05/16 04:31:17;;;;;;;15.35;9.05;;;;;;;13.88;66.30;97392.09;5048991;28;20021;-77
2021/05/16 04:33:42;;;;;;;15.23;9.63;;;;;;;13.90;66.44;97406.34;5058556;28;20063;-77
2021/05/16 04:36:08;;;;;;;23.55;13.05;;;;;;;13.93;66.32;97397.38;5064301;28;20659;-77
2021/05/16 04:38:33;;;;;;;35.20;19.30;;;;;;;13.96;66.16;97398.63;5071419;28;20028;-76
2021/05/16 04:40:59;;;;;;;34.67;20.27;;;;;;;14.00;66.46;97391.28;5071282;28;20020;-77
2021/05/16 04:43:24;;;;;;;27.80;16.27;;;;;;;14.04;66.50;97392.22;5070925;28;20119;-76
2021/05/16 04:45:49;;;;;;;22.27;12.70;;;;;;;14.07;66.50;97394.28;5070151;28;20031;-76
2021/05/16 04:48:15;;;;;;;23.88;13.13;;;;;;;14.10;66.50;97401.03;5071058;28;20021;-76
2021/05/16 04:50:41;;;;;;;22.50;13.57;;;;;;;14.10;66.27;97401.84;5071159;28;20025;-76
2021/05/16 04:53:06;;;;;;;30.75;15.63;;;;;;;14.08;66.38;97398.63;5070941;28;20103;-76
2021/05/16 04:55:32;;;;;;;34.95;16.00;;;;;;;14.04;66.36;97396.94;5071354;28;20020;-77
2021/05/16 04:57:58;;;;;;;32.33;15.25;;;;;;;14.03;66.12;97398.06;5067347;28;20022;-76
2021/05/16 05:00:24;;;;;;;28.02;13.32;;;;;;;13.98;66.39;97401.84;5070979;28;20029;-76
2021/05/16 05:02:50;;;;;;;27.67;13.02;;;;;;;13.97;66.50;97403.81;5070968;28;20119;-76
2021/05/16 05:05:16;;;;;;;29.50;12.82;;;;;;;13.95;66.44;97403.34;5071136;28;20017;-77
2021/05/16 05:07:41;;;;;;;34.55;16.13;;;;;;;13.95;66.49;97405.28;5069612;28;20029;-77
2021/05/16 05:10:08;;;;;;;38.75;14.90;;;;;;;13.89;66.41;97418.50;5070965;28;20028;-75
2021/05/16 05:12:33;;;;;;;26.58;11.93;;;;;;;13.86;66.41;97415.66;5070822;28;20024;-76
2021/05/16 05:14:59;;;;;;;31.00;14.23;;;;;;;13.88;66.65;97419.66;5070813;28;20029;-76
2021/05/16 05:17:25;;;;;;;23.85;11.02;;;;;;;13.81;67.05;97416.66;5070537;28;20095;-76
2021/05/16 05:19:50;;;;;;;74.18;21.63;;;;;;;13.70;66.73;97422.63;5070856;28;20446;-76
2021/05/16 05:22:16;;;;;;;64.50;19.73;;;;;;;13.62;66.81;97415.28;5070785;28;20016;-76
2021/05/16 05:24:41;;;;;;;64.28;19.17;;;;;;;13.60;67.00;97412.06;5070910;28;20020;-76
2021/05/16 05:27:07;;;;;;;69.20;19.60;;;;;;;13.59;67.13;97407.69;5070837;28;20134;-78
2021/05/16 05:29:32;;;;;;;32.13;12.55;;;;;;;13.61;67.11;97405.41;5070866;28;20025;-76
2021/05/16 05:31:58;;;;;;;24.55;11.23;;;;;;;13.63;67.35;97408.63;5070603;28;20025;-76
2021/05/16 05:34:26;;;;;;;25.42;16.55;;;;;;;13.64;67.03;97413.00;5070504;28;20469;-76
2021/05/16 05:36:52;;;;;;;21.70;12.00;;;;;;;13.60;67.49;97416.75;5069266;28;20016;-76
2021/05/16 05:39:18;;;;;;;25.05;13.25;;;;;;;13.59;67.31;97413.22;5066602;28;20451;-77
2021/05/16 05:41:45;;;;;;;47.75;15.60;;;;;;;13.57;67.49;97412.75;5070345;28;20501;-76
2021/05/16 05:44:11;;;;;;;51.00;18.38;;;;;;;13.57;67.58;97418.25;5070416;28;20098;-76
2021/05/16 05:46:37;;;;;;;60.67;19.40;;;;;;;13.55;67.56;97417.78;5070451;28;20029;-76
2021/05/16 05:49:02;;;;;;;29.30;12.80;;;;;;;13.58;67.65;97416.28;5072304;28;20060;-77
2021/05/16 05:51:28;;;;;;;36.47;14.35;;;;;;;13.57;67.73;97425.69;5074148;28;20019;-76
2021/05/16 05:53:53;;;;;;;89.78;22.85;;;;;;;13.57;67.77;97426.50;5074236;28;20036;-76
2021/05/16 05:56:18;;;;;;;35.97;14.18;;;;;;;13.63;68.24;97416.06;5074429;28;20032;-76
2021/05/16 05:58:44;;;;;;;31.00;13.82;;;;;;;13.65;67.86;97411.81;5074097;28;20024;-76
2021/05/16 06:01:09;;;;;;;36.13;13.43;;;;;;;13.66;67.89;97416.19;5073832;28;20087;-76
2021/05/16 06:03:35;;;;;;;24.77;12.45;;;;;;;13.66;67.83;97418.13;5074962;28;20074;-77
2021/05/16 06:06:00;;;;;;;32.42;13.13;;;;;;;13.65;67.90;97417.31;5084294;28;20024;-77
2021/05/16 06:08:25;;;;;;;33.63;13.05;;;;;;;13.68;68.04;97413.88;5075205;28;20474;-77
2021/05/16 06:10:51;;;;;;;33.90;13.38;;;;;;;13.70;68.09;97419.84;5075189;28;20062;-76
2021/05/16 06:13:16;;;;;;;28.25;11.68;;;;;;;13.75;68.18;97418.03;5075484;28;20048;-78
2021/05/16 06:15:41;;;;;;;27.63;12.25;;;;;;;13.81;68.13;97417.47;5074833;28;20508;-78
2021/05/16 06:18:07;;;;;;;39.75;17.65;;;;;;;13.83;68.23;97417.94;5075127;28;20027;-78
2021/05/16 06:20:33;;;;;;;31.15;16.30;;;;;;;13.87;68.10;97423.56;5075260;28;20020;-78
2021/05/16 06:23:02;;;;;;;25.20;13.73;;;;;;;13.91;68.36;97416.22;5076004;28;20053;-77
2021/05/16 06:25:28;;;;;;;24.37;14.47;;;;;;;13.98;68.19;97418.38;5075002;28;20032;-78
2021/05/16 06:27:56;;;;;;;80.45;51.65;;;;;;;14.04;68.13;97422.53;5075068;28;20443;-78
2021/05/16 06:30:22;;;;;;;57.17;38.20;;;;;;;14.06;67.88;97419.44;5074964;28;20029;-79
2021/05/16 06:32:47;;;;;;;36.05;21.23;;;;;;;14.02;68.00;97424.03;5079886;28;20042;-78
2021/05/16 06:35:13;;;;;;;46.95;22.00;;;;;;;13.98;67.92;97435.75;5093178;28;20040;-78
2021/05/16 06:37:39;;;;;;;109.68;31.85;;;;;;;13.95;68.18;97441.13;5095027;28;20089;-78
2021/05/16 06:40:05;;;;;;;37.78;15.90;;;;;;;13.92;67.86;97447.31;5093824;28;20367;-77
2021/05/16 06:42:31;;;;;;;22.33;14.27;;;;;;;13.88;68.02;97449.16;5077950;28;20020;-78
2021/05/16 06:44:56;;;;;;;19.55;11.82;;;;;;;13.87;68.22;97448.38;5074224;28;20035;-77
2021/05/16 06:47:23;;;;;;;15.75;9.52;;;;;;;13.88;67.97;97449.16;5085942;28;20050;-77
2021/05/16 06:49:52;;;;;;;12.73;8.95;;;;;;;13.83;68.14;97466.72;5083099;28;20070;-77
2021/05/16 06:52:17;;;;;;;12.80;8.90;;;;;;;13.77;68.11;97462.59;5086245;28;20024;-78
2021/05/16 06:54:42;;;;;;;16.30;10.48;;;;;;;13.70;68.10;97460.41;5094432;28;20381;-78
2021/05/16 06:57:08;;;;;;;15.82;9.82;;;;;;;13.69;68.09;97453.28;5092676;28;20432;-77
2021/05/16 06:59:33;;;;;;;16.05;10.15;;;;;;;13.69;68.39;97445.81;5094262;28;20032;-77
2021/05/16 07:01:58;;;;;;;14.35;9.40;;;;;;;13.70;68.36;97452.13;5065754;28;20047;-78
2021/05/16 07:04:24;;;;;;;13.35;8.63;;;;;;;13.71;68.43;97459.25;5088152;28;20028;-76
2021/05/16 07:06:49;;;;;;;12.20;8.10;;;;;;;13.70;68.54;97450.16;5084775;28;20033;-77
2021/05/16 07:09:15;;;;;;;11.15;8.45;;;;;;;13.72;68.49;97449.03;5073622;28;20555;-77
2021/05/16 07:11:40;;;;;;;11.63;7.78;;;;;;;13.75;68.63;97440.06;5072764;28;20063;-76
2021/05/16 07:14:05;;;;;;;10.20;7.28;;;;;;;13.69;68.39;97450.53;5072678;28;20364;-77
2021/05/16 07:16:31;;;;;;;10.93;7.32;;;;;;;13.65;68.51;97447.63;5078427;28;20020;-77
2021/05/16 07:18:56;;;;;;;18.30;9.88;;;;;;;13.68;68.40;97438.69;5092260;28;20028;-76
2021/05/16 07:21:22;;;;;;;19.98;12.35;;;;;;;13.73;68.29;97431.34;5093950;28;20481;-77
2021/05/16 07:23:47;;;;;;;27.88;17.50;;;;;;;13.77;68.68;97427.59;5094425;28;20028;-77
2021/05/16 07:26:13;;;;;;;12.43;8.35;;;;;;;13.83;68.54;97437.22;5092152;28;20039;-77
2021/05/16 07:28:38;;;;;;;9.93;6.55;;;;;;;13.88;68.67;97436.19;5075120;28;20024;-77
2021/05/16 07:31:03;;;;;;;11.02;5.85;;;;;;;13.93;68.74;97427.72;5075402;28;20052;-77
2021/05/16 07:33:29;;;;;;;16.67;10.98;;;;;;;13.95;68.72;97441.13;5089069;28;20028;-77
2021/05/16 07:35:54;;;;;;;24.20;15.23;;;;;;;13.97;68.63;97431.38;5093641;28;20580;-76
2021/05/16 07:38:20;;;;;;;17.65;11.02;;;;;;;14.07;68.61;97426.53;5093636;28;20081;-77
2021/05/16 07:40:46;;;;;;;25.15;17.77;;;;;;;14.13;68.67;97434.25;5081969;28;20031;-77
2021/05/16 07:43:12;;;;;;;92.65;43.65;;;;;;;14.20;68.50;97436.44;5091004;28;20062;-76
2021/05/16 07:45:37;;;;;;;104.43;50.25;;;;;;;14.26;68.85;97434.25;5093450;28;20040;-77
2021/05/16 07:48:04;;;;;;;49.38;25.92;;;;;;;14.32;68.71;97443.88;5074245;28;20543;-77
2021/05/16 07:50:30;;;;;;;30.45;18.25;;;;;;;14.28;68.31;97460.31;5090648;28;20051;-77
2021/05/16 07:52:56;;;;;;;26.48;16.33;;;;;;;14.26;68.48;97461.84;5092018;28;20024;-77
2021/05/16 07:55:21;;;;;;;17.52;11.98;;;;;;;14.28;68.64;97460.31;5091900;28;20092;-77
2021/05/16 07:57:48;;;;;;;90.15;57.10;;;;;;;14.34;68.92;97458.13;5073996;28;20036;-78
2021/05/16 08:00:14;;;;;;;90.38;79.20;;;;;;;14.40;68.60;97464.22;5071328;28;20437;-77
2021/05/16 08:02:41;;;;;;;125.88;105.82;;;;;;;14.44;68.68;97467.91;5071145;28;20060;-77
2021/05/16 08:05:08;;;;;;;35.10;15.00;;;;;;;14.41;68.29;97472.16;5072812;28;20039;-77
2021/05/16 08:07:34;;;;;;;36.92;17.23;;;;;;;14.39;68.35;97474.44;5072513;28;20025;-77
2021/05/16 08:10:00;;;;;;;608.75;414.83;;;;;;;14.37;68.36;97481.47;5072839;28;20509;-76
2021/05/16 08:12:25;;;;;;;43.60;26.00;;;;;;;14.37;68.34;97487.00;5074108;28;20032;-76
2021/05/16 08:14:51;;;;;;;53.75;36.67;;;;;;;14.37;68.12;97489.75;5087989;28;20190;-77
2021/05/16 08:17:16;;;;;;;52.60;33.95;;;;;;;14.34;68.33;97485.72;5091849;28;20067;-78
2021/05/16 08:19:41;;;;;;;19.60;8.52;;;;;;;14.31;68.08;97497.44;5091265;28;20016;-77
2021/05/16 08:22:10;;;;;;;32.22;22.33;;;;;;;14.18;68.17;97498.59;5092687;28;20036;-76
2021/05/16 08:24:36;;;;;;;23.15;14.30;;;;;;;14.16;68.21;97498.94;5092877;28;20124;-77
2021/05/16 08:27:05;;;;;;;53.17;32.50;;;;;;;14.21;68.21;97500.66;5090949;28;20034;-77
2021/05/16 08:29:30;;;;;;;430.65;116.30;;;;;;;14.24;68.55;97492.50;5092877;28;20038;-77
2021/05/16 08:31:56;;;;;;;86.78;24.75;;;;;;;14.27;68.42;97500.09;5085940;28;20020;-77
2021/05/16 08:34:21;;;;;;;40.15;13.85;;;;;;;14.29;68.32;97488.69;5072647;28;20024;-77
2021/05/16 08:36:47;;;;;;;29.33;10.02;;;;;;;14.29;68.12;97496.97;5073466;28;20036;-77
2021/05/16 08:39:12;;;;;;;38.08;12.48;;;;;;;14.29;68.15;97500.56;5083002;28;20027;-77
2021/05/16 08:41:38;;;;;;;30.60;11.45;;;;;;;14.27;68.09;97505.59;5079089;28;20484;-77
2021/05/16 08:44:03;;;;;;;54.33;18.85;;;;;;;14.28;68.21;97503.63;5092647;28;20040;-77
2021/05/16 08:46:30;;;;;;;17.67;7.68;;;;;;;14.25;68.10;97505.13;5081826;28;20138;-76
2021/05/16 08:48:56;;;;;;;20.77;7.82;;;;;;;14.24;68.44;97500.78;5071055;28;20032;-75
2021/05/16 08:51:22;;;;;;;15.15;6.18;;;;;;;14.20;67.97;97502.59;5072012;28;20017;-76
2021/05/16 08:53:48;;;;;;;22.23;7.97;;;;;;;14.22;68.15;97505.81;5072285;28;20118;-76
2021/05/16 08:56:14;;;;;;;33.70;11.25;;;;;;;14.31;68.55;97504.91;5073534;28;20074;-76
2021/05/16 08:58:39;;;;;;;28.63;10.55;;;;;;;14.39;68.48;97507.56;5072231;28;20523;-76
2021/05/16 09:01:25;;;;;;;12.15;6.15;;;;;;;14.36;67.94;97499.97;5078213;28;20490;-77
2021/05/16 09:03:52;;;;;;;11.70;5.32;;;;;;;14.37;68.20;97507.09;5092317;28;20059;-77
2021/05/16 09:06:31;;;;;;;11.60;5.90;;;;;;;14.34;68.08;97509.75;5090555;28;20040;-76
2021/05/16 09:08:56;;;;;;;51.72;14.40;;;;;;;14.37;68.25;97507.09;5092445;28;20060;-77
2021/05/16 09:11:22;;;;;;;8.60;5.25;;;;;;;14.44;68.50;97501.81;5090666;28;20059;-77
2021/05/16 09:13:52;;;;;;;14.93;5.90;;;;;;;14.57;68.34;97507.31;5084421;28;20074;-77
2021/05/16 09:16:18;;;;;;;9.02;3.90;;;;;;;14.56;68.21;97509.25;5090053;28;20123;-77
2021/05/16 09:18:44;;;;;;;14.07;6.63;;;;;;;14.50;67.53;97510.66;5092247;28;20028;-77
2021/05/16 09:21:29;;;;;;;11.18;4.93;;;;;;;14.39;67.33;97515.81;5077270;28;20081;-77
2021/05/16 09:24:00;;;;;;;9.75;5.53;;;;;;;14.37;67.82;97517.34;5074185;28;20029;-77
2021/05/16 09:26:34;;;;;;;10.02;5.20;;;;;;;14.32;67.73;97520.31;5077003;28;20024;-78
2021/05/16 09:29:21;;;;;;;10.75;5.22;;;;;;;14.31;67.40;97529.75;5075854;28;20103;-77
2021/05/16 09:31:48;;;;;;;11.43;5.90;;;;;;;14.28;67.84;97528.47;5071066;28;20028;-77
2021/05/16 09:34:13;;;;;;;12.85;6.05;;;;;;;14.24;67.60;97525.59;5086349;28;20165;-78
2021/05/16 09:36:41;;;;;;;11.43;6.03;;;;;;;14.19;67.81;97525.03;5096159;28;20050;-77
2021/05/16 09:39:30;;;;;;;12.63;6.15;;;;;;;14.18;67.83;97526.97;5096332;28;20028;-78
2021/05/16 09:42:13;;;;;;;10.07;5.18;;;;;;;14.18;68.10;97529.72;5092650;28;20024;-78
2021/05/16 09:44:42;;;;;;;12.45;6.05;;;;;;;14.13;67.97;97528.00;5095940;28;20028;-77
2021/05/16 09:47:27;;;;;;;12.63;6.72;;;;;;;14.16;67.98;97525.72;5084501;28;20383;-77
2021/05/16 09:49:58;;;;;;;19.63;9.80;;;;;;;14.28;68.56;97525.69;5090731;28;20123;-78
2021/05/16 09:52:34;;;;;;;19.08;9.35;;;;;;;14.31;68.07;97521.47;5094044;28;20116;-78
2021/05/16 09:55:08;;;;;;;18.58;9.35;;;;;;;14.36;68.09;97524.78;5075039;28;20521;-78
2021/05/16 09:57:36;;;;;;;18.70;8.90;;;;;;;14.47;68.42;97527.09;5055479;28;20163;-77
2021/05/16 10:00:09;;;;;;;19.45;8.98;;;;;;;14.47;68.08;97521.56;5057415;28;20029;-77
2021/05/16 10:02:35;;;;;;;18.70;9.20;;;;;;;14.45;68.15;97527.47;5055235;28;20049;-77
2021/05/16 10:05:04;;;;;;;22.23;8.65;;;;;;;14.51;67.97;97525.25;5085484;28;20032;-78
2021/05/16 10:07:30;;;;;;;21.52;8.35;;;;;;;14.60;68.06;97517.69;5062468;28;20043;-78
2021/05/16 10:09:57;;;;;;;11.18;5.75;;;;;;;14.66;67.71;97518.22;5074023;28;20020;-78
2021/05/16 10:12:23;;;;;;;15.38;7.10;;;;;;;14.72;67.65;97528.72;5074922;28;20031;-77
2021/05/16 10:15:00;;;;;;;13.55;6.50;;;;;;;14.75;67.76;97524.47;5075165;28;20029;-77
2021/05/16 10:17:26;;;;;;;11.77;6.13;;;;;;;14.72;67.28;97533.44;5084709;28;20027;-77
2021/05/16 10:19:52;;;;;;;12.75;5.90;;;;;;;14.77;67.24;97532.38;5078918;28;20056;-78
2021/05/16 10:22:18;;;;;;;12.30;6.07;;;;;;;14.78;67.11;97536.75;5076575;28;20056;-78
2021/05/16 10:24:46;;;;;;;7.57;3.83;;;;;;;14.83;66.69;97545.63;5095213;28;20433;-77
2021/05/16 10:27:21;;;;;;;20.45;8.52;;;;;;;14.88;66.82;97541.81;5085593;28;20032;-78
2021/05/16 10:29:49;;;;;;;8.10;3.42;;;;;;;14.96;66.53;97546.41;5076004;28;20028;-77
2021/05/16 10:32:20;;;;;;;9.32;4.47;;;;;;;15.01;66.31;97543.41;5074688;28;20033;-78
2021/05/16 10:34:55;;;;;;;11.07;4.70;;;;;;;15.07;65.76;97545.94;5092419;28;20034;-75
2021/05/16 10:37:36;;;;;;;7.85;3.45;;;;;;;15.13;65.89;97544.50;5085202;28;20032;-75
2021/05/16 10:40:03;;;;;;;5.20;2.65;;;;;;;15.17;64.38;97543.47;5054508;28;20029;-75
2021/05/16 10:42:38;;;;;;;4.68;2.20;;;;;;;15.17;64.56;97535.19;5082222;28;20028;-75
2021/05/16 10:45:14;;;;;;;5.50;2.47;;;;;;;15.21;64.13;97535.28;5085403;28;20037;-74
2021/05/16 10:47:43;;;;;;;5.03;2.47;;;;;;;15.27;63.95;97530.34;5073929;28;20036;-74
2021/05/16 10:50:09;;;;;;;8.95;3.80;;;;;;;15.37;64.24;97529.03;5070577;28;20067;-74
2021/05/16 10:52:34;;;;;;;4.22;2.25;;;;;;;15.48;64.12;97530.94;5074336;28;20033;-74
2021/05/16 10:55:01;;;;;;;4.07;2.05;;;;;;;15.60;64.06;97524.56;5074396;28;20036;-74
2021/05/16 10:57:40;;;;;;;4.55;2.00;;;;;;;15.65;63.58;97517.16;5074125;28;20060;-74
2021/05/16 11:00:26;;;;;;;4.80;1.98;;;;;;;15.73;63.88;97511.47;5073978;28;20032;-74
2021/05/16 11:03:04;;;;;;;3.67;2.10;;;;;;;15.74;62.95;97526.91;5068150;28;20048;-74
2021/05/16 11:08:31;;;;;;;3.20;1.60;;;;;;;15.95;63.00;97514.84;5074328;28;20032;-75
2021/05/16 11:10:59;;;;;;;5.55;2.25;;;;;;;16.03;62.77;97518.59;5073484;28;20029;-74
2021/05/16 11:13:27;;;;;;;3.22;1.73;;;;;;;15.98;61.91;97519.66;5073979;28;20047;-74
2021/05/16 11:15:53;;;;;;;4.75;2.15;;;;;;;15.93;61.86;97514.41;5046759;28;20029;-74
2021/05/16 11:18:20;;;;;;;5.63;2.78;;;;;;;15.96;61.85;97527.50;5039012;28;20029;-74
2021/05/16 11:20:52;;;;;;;3.13;1.50;;;;;;;16.00;61.69;97524.84;5050828;28;20062;-74